sensor_id;sensor_type;location;lat;lon;timestamp;pressure;altitude;pressure_sealevel;temperature;humidity
54546;BME280;40444;45.184;9.850;2023-12-04T16:23:39;101287.91;;;0.77;100.00
54546;BME280;40444;45.184;9.850;2023-12-04T16:26:10;101289.75;;;0.96;100.00
54546;BME280;40444;45.184;9.850;2023-12-04T16:28:39;101283.19;;;1.29;100.00
54546;BME280;40444;45.184;9.850;2023-12-04T16:31:08;101281.41;;;1.93;100.00
54546;BME280;40444;45.184;9.850;2023-12-04T16:33:36;101281.19;;;2.39;100.00
54546;BME280;40444;45.184;9.850;2023-12-04T16:36:06;101279.38;;;2.78;100.00
54546;BME280;40444;45.184;9.850;2023-12-04T16:38:34;101288.75;;;3.04;100.00
54546;BME280;40444;45.184;9.850;2023-12-04T16:41:03;101296.03;;;3.18;100.00
54546;BME280;40444;45.184;9.850;2023-12-04T16:43:32;101286.16;;;3.39;100.00
54546;BME280;40444;45.184;9.850;2023-12-04T16:46:01;101280.66;;;3.61;100.00
54546;BME280;40444;45.184;9.850;2023-12-04T16:48:29;101276.94;;;3.65;100.00
54546;BME280;40444;45.184;9.850;2023-12-04T16:50:58;101278.19;;;3.93;100.00
54546;BME280;40444;45.184;9.850;2023-12-04T16:53:27;101282.00;;;4.04;100.00
54546;BME280;40444;45.184;9.850;2023-12-04T16:55:55;101285.13;;;4.13;100.00
54546;BME280;40444;45.184;9.850;2023-12-04T16:58:24;101295.41;;;4.19;100.00
54546;BME280;40444;45.184;9.850;2023-12-04T17:00:53;101290.97;;;4.19;100.00
54546;BME280;40444;45.184;9.850;2023-12-04T17:03:22;101293.47;;;4.22;100.00
54546;BME280;40444;45.184;9.850;2023-12-04T17:05:51;101300.72;;;4.19;100.00
54546;BME280;40444;45.184;9.850;2023-12-04T17:08:19;101294.19;;;4.09;100.00
54546;BME280;40444;45.184;9.850;2023-12-04T17:10:50;101289.03;;;4.05;100.00
54546;BME280;40444;45.184;9.850;2023-12-04T17:13:21;101278.91;;;3.96;100.00
54546;BME280;40444;45.184;9.850;2023-12-04T17:15:49;101273.81;;;3.92;100.00
54546;BME280;40444;45.184;9.850;2023-12-04T17:18:17;101275.47;;;3.94;100.00
54546;BME280;40444;45.184;9.850;2023-12-04T17:20:46;101284.38;;;3.93;100.00
54546;BME280;40444;45.184;9.850;2023-12-04T17:23:14;101282.56;;;3.94;100.00
54546;BME280;40444;45.184;9.850;2023-12-04T17:25:43;101283.91;;;4.02;100.00
54546;BME280;40444;45.184;9.850;2023-12-04T17:28:11;101292.31;;;3.93;100.00
54546;BME280;40444;45.184;9.850;2023-12-04T17:30:40;101288.72;;;3.94;100.00
54546;BME280;40444;45.184;9.850;2023-12-04T17:33:10;101286.69;;;3.99;100.00
54546;BME280;40444;45.184;9.850;2023-12-04T17:35:38;101285.13;;;3.95;100.00
54546;BME280;40444;45.184;9.850;2023-12-04T17:38:07;101280.84;;;3.93;100.00
54546;BME280;40444;45.184;9.850;2023-12-04T17:40:35;101278.28;;;4.09;100.00
54546;BME280;40444;45.184;9.850;2023-12-04T17:43:04;101278.03;;;4.13;100.00
54546;BME280;40444;45.184;9.850;2023-12-04T17:45:33;101290.75;;;4.07;100.00
54546;BME280;40444;45.184;9.850;2023-12-04T17:48:01;101291.44;;;4.10;100.00
54546;BME280;40444;45.184;9.850;2023-12-04T17:50:31;101284.75;;;4.20;100.00
54546;BME280;40444;45.184;9.850;2023-12-04T17:53:01;101293.19;;;4.11;100.00
54546;BME280;40444;45.184;9.850;2023-12-04T17:55:29;101288.03;;;4.08;100.00
54546;BME280;40444;45.184;9.850;2023-12-04T17:58:01;101289.50;;;3.96;100.00
54546;BME280;40444;45.184;9.850;2023-12-04T18:00:30;101277.28;;;4.11;100.00
54546;BME280;40444;45.184;9.850;2023-12-04T18:02:59;101279.69;;;3.98;100.00
54546;BME280;40444;45.184;9.850;2023-12-04T18:05:27;101278.84;;;3.98;100.00
54546;BME280;40444;45.184;9.850;2023-12-04T18:07:55;101265.72;;;3.95;100.00
54546;BME280;40444;45.184;9.850;2023-12-04T18:10:25;101257.91;;;3.92;100.00
54546;BME280;40444;45.184;9.850;2023-12-04T18:12:54;101267.44;;;3.78;100.00
54546;BME280;40444;45.184;9.850;2023-12-04T18:15:23;101274.38;;;3.81;100.00
54546;BME280;40444;45.184;9.850;2023-12-04T18:17:51;101266.34;;;3.83;100.00
54546;BME280;40444;45.184;9.850;2023-12-04T18:20:20;101272.72;;;3.78;100.00
54546;BME280;40444;45.184;9.850;2023-12-04T18:22:49;101279.59;;;3.83;100.00
54546;BME280;40444;45.184;9.850;2023-12-04T18:25:20;101271.66;;;3.83;100.00
54546;BME280;40444;45.184;9.850;2023-12-04T18:27:49;101272.69;;;3.80;100.00
54546;BME280;40444;45.184;9.850;2023-12-04T18:30:19;101270.47;;;3.88;100.00
54546;BME280;40444;45.184;9.850;2023-12-04T18:32:48;101266.97;;;3.88;100.00
54546;BME280;40444;45.184;9.850;2023-12-04T18:35:17;101259.63;;;3.93;100.00
54546;BME280;40444;45.184;9.850;2023-12-04T18:40:28;101253.22;;;3.97;100.00
54546;BME280;40444;45.184;9.850;2023-12-04T18:42:57;101259.56;;;3.94;100.00
54546;BME280;40444;45.184;9.850;2023-12-04T18:45:28;101254.63;;;4.04;100.00
54546;BME280;40444;45.184;9.850;2023-12-04T18:47:59;101256.44;;;4.03;100.00
54546;BME280;40444;45.184;9.850;2023-12-04T18:50:29;101263.22;;;4.09;100.00
54546;BME280;40444;45.184;9.850;2023-12-04T18:53:01;101253.63;;;4.07;100.00
54546;BME280;40444;45.184;9.850;2023-12-04T18:55:30;101259.00;;;4.05;100.00
54546;BME280;40444;45.184;9.850;2023-12-04T18:57:59;101246.13;;;4.15;100.00
54546;BME280;40444;45.184;9.850;2023-12-04T19:00:27;101240.75;;;4.16;100.00
54546;BME280;40444;45.184;9.850;2023-12-04T19:02:56;101241.91;;;4.11;100.00
54546;BME280;40444;45.184;9.850;2023-12-04T19:05:25;101240.38;;;4.07;100.00
54546;BME280;40444;45.184;9.850;2023-12-04T19:07:56;101244.88;;;4.04;100.00
54546;BME280;40444;45.184;9.850;2023-12-04T19:10:24;101247.53;;;4.04;100.00
54546;BME280;40444;45.184;9.850;2023-12-04T19:13:37;101233.56;;;4.01;100.00
54546;BME280;40444;45.184;9.850;2023-12-04T19:16:06;101236.84;;;4.06;100.00
54546;BME280;40444;45.184;9.850;2023-12-04T19:18:34;101248.47;;;4.03;100.00
54546;BME280;40444;45.184;9.850;2023-12-04T19:21:06;101247.53;;;4.04;100.00
54546;BME280;40444;45.184;9.850;2023-12-04T19:23:35;101239.72;;;4.01;100.00
54546;BME280;40444;45.184;9.850;2023-12-04T19:26:05;101230.53;;;4.09;100.00
54546;BME280;40444;45.184;9.850;2023-12-04T19:28:34;101227.41;;;4.18;100.00
54546;BME280;40444;45.184;9.850;2023-12-04T19:31:05;101218.59;;;4.17;100.00
54546;BME280;40444;45.184;9.850;2023-12-04T19:33:34;101218.97;;;4.10;100.00
54546;BME280;40444;45.184;9.850;2023-12-04T19:36:04;101228.50;;;4.14;100.00
54546;BME280;40444;45.184;9.850;2023-12-04T19:38:33;101218.03;;;4.11;100.00
54546;BME280;40444;45.184;9.850;2023-12-04T19:41:04;101218.97;;;4.10;100.00
54546;BME280;40444;45.184;9.850;2023-12-04T19:43:33;101220.16;;;4.04;100.00
54546;BME280;40444;45.184;9.850;2023-12-04T19:46:03;101204.16;;;4.05;100.00
54546;BME280;40444;45.184;9.850;2023-12-04T19:48:32;101209.31;;;4.09;100.00
54546;BME280;40444;45.184;9.850;2023-12-04T19:51:04;101201.69;;;4.02;100.00
54546;BME280;40444;45.184;9.850;2023-12-04T19:53:33;101201.84;;;3.99;100.00
54546;BME280;40444;45.184;9.850;2023-12-04T19:56:01;101210.75;;;3.98;100.00
54546;BME280;40444;45.184;9.850;2023-12-04T19:58:30;101214.56;;;3.93;100.00
54546;BME280;40444;45.184;9.850;2023-12-04T20:00:58;101203.88;;;3.94;100.00
54546;BME280;40444;45.184;9.850;2023-12-04T20:03:27;101206.84;;;3.88;100.00
54546;BME280;40444;45.184;9.850;2023-12-04T20:05:56;101203.34;;;3.88;100.00
54546;BME280;40444;45.184;9.850;2023-12-04T20:08:24;101200.88;;;3.85;100.00
54546;BME280;40444;45.184;9.850;2023-12-04T20:10:52;101193.31;;;3.77;100.00
54546;BME280;40444;45.184;9.850;2023-12-04T20:13:20;101182.69;;;3.77;100.00
54546;BME280;40444;45.184;9.850;2023-12-04T20:15:49;101185.50;;;3.74;100.00
54546;BME280;40444;45.184;9.850;2023-12-04T20:18:17;101184.03;;;3.68;100.00
54546;BME280;40444;45.184;9.850;2023-12-04T20:20:46;101181.13;;;3.73;100.00
54546;BME280;40444;45.184;9.850;2023-12-04T20:23:14;101182.94;;;3.72;100.00
54546;BME280;40444;45.184;9.850;2023-12-04T20:25:45;101180.81;;;3.79;100.00
54546;BME280;40444;45.184;9.850;2023-12-04T20:28:13;101178.81;;;3.84;100.00
54546;BME280;40444;45.184;9.850;2023-12-04T20:30:44;101191.19;;;3.84;100.00
54546;BME280;40444;45.184;9.850;2023-12-04T20:33:14;101183.31;;;3.65;100.00
54546;BME280;40444;45.184;9.850;2023-12-04T20:35:50;101184.41;;;3.78;100.00
54546;BME280;40444;45.184;9.850;2023-12-04T20:38:19;101189.34;;;3.68;100.00
54546;BME280;40444;45.184;9.850;2023-12-04T20:40:48;101180.81;;;3.79;100.00
54546;BME280;40444;45.184;9.850;2023-12-04T20:43:20;101175.75;;;3.74;100.00
54546;BME280;40444;45.184;9.850;2023-12-04T20:45:49;101174.34;;;3.85;100.00
54546;BME280;40444;45.184;9.850;2023-12-04T20:48:18;101171.72;;;3.85;100.00
54546;BME280;40444;45.184;9.850;2023-12-04T20:50:47;101173.44;;;3.68;100.00
54546;BME280;40444;45.184;9.850;2023-12-04T20:53:15;101167.59;;;3.62;100.00
54546;BME280;40444;45.184;9.850;2023-12-04T20:55:44;101161.28;;;3.64;100.00
54546;BME280;40444;45.184;9.850;2023-12-04T20:58:16;101155.66;;;3.70;100.00
54546;BME280;40444;45.184;9.850;2023-12-04T21:00:45;101156.91;;;3.63;100.00
54546;BME280;40444;45.184;9.850;2023-12-04T21:03:14;101150.28;;;3.54;100.00
54546;BME280;40444;45.184;9.850;2023-12-04T21:05:43;101139.84;;;3.51;100.00
54546;BME280;40444;45.184;9.850;2023-12-04T21:08:12;101143.91;;;3.59;100.00
54546;BME280;40444;45.184;9.850;2023-12-04T21:10:40;101145.94;;;3.53;100.00
54546;BME280;40444;45.184;9.850;2023-12-04T21:13:09;101147.50;;;3.58;100.00
54546;BME280;40444;45.184;9.850;2023-12-04T21:15:37;101138.91;;;3.52;100.00
54546;BME280;40444;45.184;9.850;2023-12-04T21:18:07;101133.94;;;3.46;100.00
54546;BME280;40444;45.184;9.850;2023-12-04T21:20:36;101132.84;;;3.50;100.00
54546;BME280;40444;45.184;9.850;2023-12-04T21:23:05;101127.03;;;3.44;100.00
54546;BME280;40444;45.184;9.850;2023-12-04T21:25:37;101131.03;;;3.51;100.00
54546;BME280;40444;45.184;9.850;2023-12-04T21:28:06;101132.91;;;3.66;100.00
54546;BME280;40444;45.184;9.850;2023-12-04T21:30:34;101123.59;;;3.75;100.00
54546;BME280;40444;45.184;9.850;2023-12-04T21:33:05;101123.19;;;3.83;100.00
54546;BME280;40444;45.184;9.850;2023-12-04T21:35:34;101126.44;;;3.88;100.00
54546;BME280;40444;45.184;9.850;2023-12-04T21:38:06;101123.19;;;3.83;100.00
54546;BME280;40444;45.184;9.850;2023-12-04T21:40:34;101121.25;;;3.86;100.00
54546;BME280;40444;45.184;9.850;2023-12-04T21:43:03;101118.13;;;3.78;100.00
54546;BME280;40444;45.184;9.850;2023-12-04T21:45:31;101118.13;;;3.78;100.00
54546;BME280;40444;45.184;9.850;2023-12-04T21:48:00;101117.53;;;3.73;100.00
54546;BME280;40444;45.184;9.850;2023-12-04T21:50:29;101111.84;;;3.80;100.00
54546;BME280;40444;45.184;9.850;2023-12-04T21:52:58;101117.38;;;3.76;100.00
54546;BME280;40444;45.184;9.850;2023-12-04T21:55:27;101121.03;;;3.73;100.00
54546;BME280;40444;45.184;9.850;2023-12-04T21:57:56;101122.69;;;3.76;100.00
54546;BME280;40444;45.184;9.850;2023-12-04T22:00:25;101111.22;;;3.75;100.00
54546;BME280;40444;45.184;9.850;2023-12-04T22:02:54;101111.03;;;3.78;100.00
54546;BME280;40444;45.184;9.850;2023-12-04T22:05:23;101117.84;;;3.84;100.00
54546;BME280;40444;45.184;9.850;2023-12-04T22:07:51;101107.28;;;3.83;100.00
54546;BME280;40444;45.184;9.850;2023-12-04T22:10:20;101101.94;;;3.84;100.00
54546;BME280;40444;45.184;9.850;2023-12-04T22:12:48;101101.13;;;3.82;100.00
54546;BME280;40444;45.184;9.850;2023-12-04T22:15:17;101088.28;;;3.74;100.00
54546;BME280;40444;45.184;9.850;2023-12-04T22:17:46;101082.69;;;3.80;100.00
54546;BME280;40444;45.184;9.850;2023-12-04T22:20:14;101087.78;;;3.84;100.00
54546;BME280;40444;45.184;9.850;2023-12-04T22:22:43;101088.69;;;3.84;100.00
54546;BME280;40444;45.184;9.850;2023-12-04T22:25:11;101094.22;;;3.79;100.00
54546;BME280;40444;45.184;9.850;2023-12-04T22:27:42;101101.97;;;3.67;100.00
54546;BME280;40444;45.184;9.850;2023-12-04T22:30:11;101101.34;;;3.62;100.00
54546;BME280;40444;45.184;9.850;2023-12-04T22:32:40;101094.25;;;3.62;100.00
54546;BME280;40444;45.184;9.850;2023-12-04T22:35:08;101094.16;;;3.64;100.00
54546;BME280;40444;45.184;9.850;2023-12-04T22:37:37;101092.97;;;3.69;100.00
54546;BME280;40444;45.184;9.850;2023-12-04T22:40:06;101081.44;;;3.70;100.00
54546;BME280;40444;45.184;9.850;2023-12-04T22:42:35;101072.56;;;3.71;100.00
54546;BME280;40444;45.184;9.850;2023-12-04T22:45:04;101074.78;;;3.79;100.00
54546;BME280;40444;45.184;9.850;2023-12-04T22:47:33;101068.13;;;3.88;100.00
54546;BME280;40444;45.184;9.850;2023-12-04T22:50:02;101076.19;;;3.86;100.00
54546;BME280;40444;45.184;9.850;2023-12-04T22:52:31;101078.94;;;3.85;100.00
54546;BME280;40444;45.184;9.850;2023-12-04T22:54:59;101069.72;;;3.74;100.00
54546;BME280;40444;45.184;9.850;2023-12-04T22:57:29;101071.97;;;3.66;100.00
54546;BME280;40444;45.184;9.850;2023-12-04T22:59:59;101069.56;;;3.77;100.00
54546;BME280;40444;45.184;9.850;2023-12-04T23:02:27;101063.28;;;3.80;100.00
54546;BME280;40444;45.184;9.850;2023-12-04T23:04:56;101068.06;;;3.89;100.00
54546;BME280;40444;45.184;9.850;2023-12-04T23:07:29;101068.22;;;3.86;100.00
54546;BME280;40444;45.184;9.850;2023-12-04T23:09:58;101068.31;;;3.85;100.00
54546;BME280;40444;45.184;9.850;2023-12-04T23:12:42;101064.81;;;3.84;100.00
54546;BME280;40444;45.184;9.850;2023-12-04T23:15:11;101054.22;;;3.84;100.00
54546;BME280;40444;45.184;9.850;2023-12-04T23:17:39;101053.19;;;3.87;100.00
54546;BME280;40444;45.184;9.850;2023-12-04T23:20:08;101040.25;;;3.80;100.00
54546;BME280;40444;45.184;9.850;2023-12-04T23:22:37;101049.91;;;3.82;100.00
54546;BME280;40444;45.184;9.850;2023-12-04T23:25:07;101044.63;;;3.82;100.00
54546;BME280;40444;45.184;9.850;2023-12-04T23:27:35;101041.97;;;3.82;100.00
54546;BME280;40444;45.184;9.850;2023-12-04T23:30:05;101036.81;;;3.78;100.00
54546;BME280;40444;45.184;9.850;2023-12-04T23:32:34;101036.75;;;3.80;100.00
54546;BME280;40444;45.184;9.850;2023-12-04T23:35:04;101029.56;;;3.82;100.00
54546;BME280;40444;45.184;9.850;2023-12-04T23:37:33;101027.16;;;3.77;100.00
54546;BME280;40444;45.184;9.850;2023-12-04T23:40:02;101029.41;;;3.85;100.00
54546;BME280;40444;45.184;9.850;2023-12-04T23:42:31;101020.06;;;3.78;100.00
54546;BME280;40444;45.184;9.850;2023-12-04T23:44:59;101020.31;;;3.73;100.00
54546;BME280;40444;45.184;9.850;2023-12-04T23:47:28;101014.06;;;3.74;100.00
54546;BME280;40444;45.184;9.850;2023-12-04T23:49:56;101021.97;;;3.76;100.00
54546;BME280;40444;45.184;9.850;2023-12-04T23:52:25;101015.81;;;3.75;100.00
54546;BME280;40444;45.184;9.850;2023-12-04T23:54:53;101014.06;;;3.74;100.00
54546;BME280;40444;45.184;9.850;2023-12-04T23:57:22;101013.16;;;3.75;100.00
54546;BME280;40444;45.184;9.850;2023-12-04T23:59:51;101009.41;;;3.79;100.00
